Time;durP1;ratioP1;P1;durP2;ratioP2;P2;SDS_P1;SDS_P2;PMS_P1;PMS_P2;Temp;Humidity;BMP_temperature;BMP_pressure;BME280_temperature;BME280_humidity;BME280_pressure;Samples;Min_cycle;Max_cycle;Signal;HPM_P1;HPM_P2
2024/02/18 00:00:06;;;;;;;3.60;1.08;;;;;;;;;;4976504;28;87678;-64
2024/02/18 00:02:34;;;;;;;2.42;0.93;;;;;;;;;;4976149;28;87252;-65
2024/02/18 00:05:00;;;;;;;1.55;0.82;;;;;;;;;;4976079;28;86998;-63
2024/02/18 00:07:25;;;;;;;1.93;1.03;;;;;;;;;;4975034;28;87367;-63
2024/02/18 00:09:52;;;;;;;1.40;0.90;;;;;;;;;;4969615;28;87866;-64
2024/02/18 00:12:17;;;;;;;3.10;1.40;;;;;;;;;;4975006;28;89199;-64
2024/02/18 00:14:43;;;;;;;1.67;1.10;;;;;;;;;;4978443;28;87817;-64
2024/02/18 00:17:08;;;;;;;1.23;0.80;;;;;;;;;;4976763;28;89170;-63
2024/02/18 00:19:33;;;;;;;3.20;1.03;;;;;;;;;;4974597;28;87846;-63
2024/02/18 00:21:59;;;;;;;2.07;1.10;;;;;;;;;;4976327;28;87333;-63
2024/02/18 00:24:24;;;;;;;1.05;0.90;;;;;;;;;;4976959;28;87882;-64
2024/02/18 00:26:51;;;;;;;0.83;0.73;;;;;;;;;;4972601;28;88625;-63
2024/02/18 00:29:16;;;;;;;1.77;1.05;;;;;;;;;;4975191;28;87528;-63
2024/02/18 00:31:41;;;;;;;4.80;1.07;;;;;;;;;;4975235;28;87543;-64
2024/02/18 00:34:06;;;;;;;1.67;1.00;;;;;;;;;;4975152;28;88695;-64
2024/02/18 00:36:32;;;;;;;1.20;0.80;;;;;;;;;;4983924;28;87029;-64
2024/02/18 00:38:57;;;;;;;2.07;1.10;;;;;;;;;;4974704;28;88227;-64
2024/02/18 00:41:22;;;;;;;1.20;1.00;;;;;;;;;;4976542;28;87619;-63
2024/02/18 00:43:47;;;;;;;1.08;0.82;;;;;;;;;;4975947;28;88079;-63
2024/02/18 00:46:13;;;;;;;1.53;0.83;;;;;;;;;;4976860;28;87258;-63
2024/02/18 00:48:39;;;;;;;3.27;0.80;;;;;;;;;;4976845;28;87133;-64
2024/02/18 00:51:05;;;;;;;2.97;1.02;;;;;;;;;;4973742;28;87125;-64
2024/02/18 00:53:30;;;;;;;0.80;0.70;;;;;;;;;;4976448;28;88018;-63
2024/02/18 00:55:55;;;;;;;2.30;1.00;;;;;;;;;;4975638;28;86883;-63
2024/02/18 00:58:20;;;;;;;2.97;1.00;;;;;;;;;;4977102;28;87902;-64
2024/02/18 01:00:46;;;;;;;2.73;0.60;;;;;;;;;;4972493;28;89041;-64
2024/02/18 01:03:11;;;;;;;0.83;0.70;;;;;;;;;;4974786;28;87837;-63
2024/02/18 01:05:36;;;;;;;1.03;0.93;;;;;;;;;;4975750;28;86857;-63
2024/02/18 01:08:02;;;;;;;2.10;1.00;;;;;;;;;;4976477;28;87116;-63
2024/02/18 01:10:27;;;;;;;2.38;1.00;;;;;;;;;;4975472;28;87323;-63
2024/02/18 01:12:52;;;;;;;1.07;0.90;;;;;;;;;;4974989;28;87003;-63
2024/02/18 01:15:17;;;;;;;1.65;0.70;;;;;;;;;;4976507;28;87617;-63
2024/02/18 01:17:43;;;;;;;2.65;0.75;;;;;;;;;;4975219;28;87788;-63
2024/02/18 01:20:08;;;;;;;2.30;0.70;;;;;;;;;;4978419;28;87706;-64
2024/02/18 01:22:34;;;;;;;0.82;0.70;;;;;;;;;;4975278;28;89467;-64
2024/02/18 01:24:59;;;;;;;0.68;0.60;;;;;;;;;;4975763;28;87598;-63
2024/02/18 01:27:25;;;;;;;4.60;0.90;;;;;;;;;;4975563;28;87467;-63
2024/02/18 01:29:50;;;;;;;0.95;0.77;;;;;;;;;;4972212;28;87539;-63
2024/02/18 01:32:15;;;;;;;2.17;1.00;;;;;;;;;;4967844;28;87804;-63
2024/02/18 01:34:40;;;;;;;1.40;0.90;;;;;;;;;;4970998;28;87432;-63
2024/02/18 01:37:06;;;;;;;1.20;0.67;;;;;;;;;;4975670;28;87213;-64
2024/02/18 01:39:31;;;;;;;1.60;0.80;;;;;;;;;;4978340;28;87038;-63
2024/02/18 01:41:56;;;;;;;1.57;0.60;;;;;;;;;;4971386;28;87219;-65
2024/02/18 01:44:21;;;;;;;1.60;0.90;;;;;;;;;;4975380;28;87496;-63
2024/02/18 01:46:47;;;;;;;0.80;0.77;;;;;;;;;;4972369;28;87911;-65
2024/02/18 01:49:12;;;;;;;6.07;0.90;;;;;;;;;;4966787;28;88198;-63
2024/02/18 01:51:38;;;;;;;1.20;0.60;;;;;;;;;;4972150;28;87485;-63
2024/02/18 01:54:05;;;;;;;0.97;0.70;;;;;;;;;;4975093;28;87762;-63
2024/02/18 01:56:30;;;;;;;1.20;0.88;;;;;;;;;;4976697;28;86825;-63
2024/02/18 01:58:55;;;;;;;0.65;0.52;;;;;;;;;;4976277;28;88283;-63
2024/02/18 02:01:21;;;;;;;1.40;0.90;;;;;;;;;;4974945;28;87087;-63
2024/02/18 02:03:46;;;;;;;0.82;0.68;;;;;;;;;;4972807;28;87049;-64
2024/02/18 02:06:13;;;;;;;2.40;0.83;;;;;;;;;;4974522;28;86930;-64
2024/02/18 02:08:39;;;;;;;3.63;1.02;;;;;;;;;;4971588;28;87253;-63
2024/02/18 02:11:04;;;;;;;1.17;0.80;;;;;;;;;;4968990;28;88368;-63
2024/02/18 02:13:29;;;;;;;1.90;0.90;;;;;;;;;;4971428;28;87197;-63
2024/02/18 02:15:55;;;;;;;0.63;0.60;;;;;;;;;;4974145;28;87084;-64
2024/02/18 02:18:20;;;;;;;0.90;0.77;;;;;;;;;;4975214;28;87676;-64
2024/02/18 02:20:45;;;;;;;1.50;0.87;;;;;;;;;;4973117;28;87060;-64
2024/02/18 02:23:11;;;;;;;1.50;0.97;;;;;;;;;;4978222;28;87468;-63
2024/02/18 02:25:36;;;;;;;1.50;0.80;;;;;;;;;;4975569;28;87133;-63
2024/02/18 02:28:07;;;;;;;0.80;0.70;;;;;;;;;;4975308;28;87544;-64
2024/02/18 02:30:32;;;;;;;1.33;0.93;;;;;;;;;;4974513;28;87505;-63
2024/02/18 02:32:58;;;;;;;0.80;0.70;;;;;;;;;;4979044;28;87019;-63
2024/02/18 02:35:25;;;;;;;1.40;0.73;;;;;;;;;;4978924;28;87857;-63
2024/02/18 02:37:52;;;;;;;1.02;0.80;;;;;;;;;;4971656;28;87826;-63
2024/02/18 02:40:17;;;;;;;0.93;0.75;;;;;;;;;;4977834;28;87348;-64
2024/02/18 02:42:43;;;;;;;1.90;0.93;;;;;;;;;;4978855;28;87679;-63
2024/02/18 02:45:08;;;;;;;1.83;0.90;;;;;;;;;;4979981;28;87950;-63
2024/02/18 02:47:33;;;;;;;0.63;0.57;;;;;;;;;;4977958;28;87371;-63
2024/02/18 02:49:59;;;;;;;1.00;0.90;;;;;;;;;;4977006;28;87924;-64
2024/02/18 02:52:24;;;;;;;1.37;0.60;;;;;;;;;;4976727;28;86406;-64
2024/02/18 02:54:49;;;;;;;1.03;0.83;;;;;;;;;;4977278;28;87434;-63
2024/02/18 02:57:14;;;;;;;1.33;0.70;;;;;;;;;;4974190;28;87984;-63
2024/02/18 02:59:40;;;;;;;2.00;0.90;;;;;;;;;;4976138;28;88262;-63
2024/02/18 03:02:05;;;;;;;0.73;0.70;;;;;;;;;;4976036;28;88607;-63
2024/02/18 03:04:30;;;;;;;0.87;0.70;;;;;;;;;;4977779;28;87003;-63
2024/02/18 03:06:55;;;;;;;2.70;1.10;;;;;;;;;;4981016;28;87057;-63
2024/02/18 03:09:20;;;;;;;1.93;0.63;;;;;;;;;;4968559;28;88789;-63
2024/02/18 03:11:46;;;;;;;1.33;0.83;;;;;;;;;;4975651;28;87089;-64
2024/02/18 03:14:11;;;;;;;0.77;0.70;;;;;;;;;;4973866;28;86958;-63
2024/02/18 03:16:36;;;;;;;0.57;0.40;;;;;;;;;;4974399;28;86756;-63
2024/02/18 03:19:01;;;;;;;2.00;0.70;;;;;;;;;;4977654;28;87690;-68
2024/02/18 03:21:27;;;;;;;0.80;0.60;;;;;;;;;;4976077;28;88078;-63
2024/02/18 03:23:53;;;;;;;1.70;0.90;;;;;;;;;;4973446;28;88450;-64
2024/02/18 03:26:18;;;;;;;0.73;0.55;;;;;;;;;;4974901;28;86975;-63
2024/02/18 03:28:43;;;;;;;0.60;0.60;;;;;;;;;;4974223;28;87815;-63
2024/02/18 03:31:15;;;;;;;1.30;0.70;;;;;;;;;;4975411;28;87003;-63
2024/02/18 03:33:40;;;;;;;1.20;0.70;;;;;;;;;;4978051;28;88629;-63
2024/02/18 03:36:06;;;;;;;0.90;0.73;;;;;;;;;;4972016;28;88396;-64
2024/02/18 03:38:31;;;;;;;1.00;0.60;;;;;;;;;;4976977;28;87398;-63
2024/02/18 03:40:56;;;;;;;1.70;0.87;;;;;;;;;;4974930;28;87565;-63
2024/02/18 03:43:21;;;;;;;1.50;0.90;;;;;;;;;;4973742;28;87443;-63
2024/02/18 03:45:47;;;;;;;1.37;0.80;;;;;;;;;;4974184;28;87337;-64
2024/02/18 03:48:12;;;;;;;1.07;0.60;;;;;;;;;;4979137;28;88063;-63
2024/02/18 03:50:37;;;;;;;1.07;0.60;;;;;;;;;;4974155;28;87050;-63
2024/02/18 03:53:03;;;;;;;1.80;0.70;;;;;;;;;;4975000;28;87341;-65
2024/02/18 03:55:29;;;;;;;1.20;0.80;;;;;;;;;;4967715;28;87679;-63
2024/02/18 03:57:54;;;;;;;1.45;0.80;;;;;;;;;;4976728;28;87674;-63
2024/02/18 04:00:20;;;;;;;1.10;0.80;;;;;;;;;;4975562;28;87182;-64
2024/02/18 04:02:45;;;;;;;1.40;0.80;;;;;;;;;;4974733;28;88145;-66
2024/02/18 04:05:11;;;;;;;1.33;0.70;;;;;;;;;;4976877;28;86399;-63
2024/02/18 04:07:36;;;;;;;1.77;0.80;;;;;;;;;;4977876;28;87251;-63
2024/02/18 04:10:02;;;;;;;0.67;0.50;;;;;;;;;;4973032;28;87290;-63
2024/02/18 04:12:27;;;;;;;1.02;0.77;;;;;;;;;;4974782;28;88362;-63
2024/02/18 04:14:52;;;;;;;1.58;0.68;;;;;;;;;;4976772;28;88801;-63
2024/02/18 04:17:18;;;;;;;1.57;0.80;;;;;;;;;;4976322;28;87377;-63
2024/02/18 04:19:43;;;;;;;1.30;0.80;;;;;;;;;;4974552;28;89470;-63
2024/02/18 04:22:08;;;;;;;0.47;0.47;;;;;;;;;;4976563;28;87305;-63
2024/02/18 04:24:33;;;;;;;0.90;0.70;;;;;;;;;;4976666;28;87421;-63
2024/02/18 04:27:04;;;;;;;2.90;0.80;;;;;;;;;;4977390;28;87679;-63
2024/02/18 04:29:29;;;;;;;1.57;1.03;;;;;;;;;;4973302;28;86419;-64
2024/02/18 04:31:54;;;;;;;2.00;0.80;;;;;;;;;;4978165;28;87458;-63
2024/02/18 04:34:20;;;;;;;0.70;0.50;;;;;;;;;;4973897;28;87281;-63
2024/02/18 04:36:48;;;;;;;0.60;0.57;;;;;;;;;;4974651;28;88593;-65
2024/02/18 04:39:13;;;;;;;0.82;0.60;;;;;;;;;;4973487;28;88308;-63
2024/02/18 04:41:39;;;;;;;1.63;0.90;;;;;;;;;;4976139;28;87665;-64
2024/02/18 04:44:04;;;;;;;1.40;0.70;;;;;;;;;;4975270;28;87106;-63
2024/02/18 04:46:29;;;;;;;0.40;0.40;;;;;;;;;;4976289;28;87170;-64
2024/02/18 04:48:56;;;;;;;1.20;0.70;;;;;;;;;;4973834;28;87833;-63
2024/02/18 04:51:22;;;;;;;0.82;0.77;;;;;;;;;;4976664;28;87032;-64
2024/02/18 04:53:47;;;;;;;0.67;0.60;;;;;;;;;;4978670;28;87074;-64
2024/02/18 04:56:12;;;;;;;0.77;0.60;;;;;;;;;;4976974;28;87249;-64
2024/02/18 04:58:37;;;;;;;0.73;0.63;;;;;;;;;;4973496;28;87192;-63
2024/02/18 05:01:03;;;;;;;1.07;0.70;;;;;;;;;;4974700;28;88357;-63
2024/02/18 05:03:29;;;;;;;1.80;0.70;;;;;;;;;;4972720;28;87106;-63
2024/02/18 05:05:54;;;;;;;0.88;0.68;;;;;;;;;;4976433;28;87285;-63
2024/02/18 05:08:19;;;;;;;0.40;0.40;;;;;;;;;;4975194;28;87876;-64
2024/02/18 05:10:44;;;;;;;1.10;0.67;;;;;;;;;;4974788;28;87481;-63
2024/02/18 05:13:09;;;;;;;1.40;0.70;;;;;;;;;;4973444;28;87455;-65
2024/02/18 05:15:35;;;;;;;0.90;0.60;;;;;;;;;;4976060;28;87690;-63
2024/02/18 05:18:00;;;;;;;1.90;0.60;;;;;;;;;;4976801;28;87594;-63
2024/02/18 05:20:26;;;;;;;0.57;0.40;;;;;;;;;;4973347;28;87646;-63
2024/02/18 05:22:51;;;;;;;1.20;0.70;;;;;;;;;;4969773;28;87576;-64
2024/02/18 05:25:16;;;;;;;1.17;0.50;;;;;;;;;;4975693;28;87951;-63
2024/02/18 05:27:41;;;;;;;0.40;0.40;;;;;;;;;;4975219;28;87878;-63
2024/02/18 05:30:07;;;;;;;0.77;0.57;;;;;;;;;;4974289;28;87678;-64
2024/02/18 05:32:32;;;;;;;0.50;0.50;;;;;;;;;;4976127;28;87459;-65
2024/02/18 05:34:57;;;;;;;1.40;0.60;;;;;;;;;;4975007;28;87807;-64
2024/02/18 05:37:22;;;;;;;1.60;0.60;;;;;;;;;;4977109;28;86912;-64
2024/02/18 05:39:48;;;;;;;0.70;0.63;;;;;;;;;;4966460;28;87058;-64
2024/02/18 05:42:13;;;;;;;0.43;0.43;;;;;;;;;;4975407;28;86224;-64
2024/02/18 05:44:38;;;;;;;0.80;0.60;;;;;;;;;;4974519;28;86998;-63
2024/02/18 05:47:03;;;;;;;0.67;0.63;;;;;;;;;;4975970;28;87231;-63
2024/02/18 05:49:28;;;;;;;1.17;0.73;;;;;;;;;;4974960;28;89273;-65
2024/02/18 05:51:54;;;;;;;1.23;0.80;;;;;;;;;;4975527;28;88626;-64
2024/02/18 05:54:23;;;;;;;1.70;0.80;;;;;;;;;;4973388;28;88291;-64
2024/02/18 05:56:48;;;;;;;2.13;0.63;;;;;;;;;;4976263;28;87428;-63
2024/02/18 05:59:14;;;;;;;1.00;0.70;;;;;;;;;;4974639;28;87189;-64
2024/02/18 06:01:39;;;;;;;1.83;0.60;;;;;;;;;;4971084;28;87290;-68
2024/02/18 06:04:04;;;;;;;0.50;0.43;;;;;;;;;;4978805;28;87770;-64
2024/02/18 06:06:30;;;;;;;0.90;0.60;;;;;;;;;;4976760;28;87290;-64
2024/02/18 06:08:55;;;;;;;0.50;0.40;;;;;;;;;;4978948;28;87008;-65
2024/02/18 06:11:20;;;;;;;1.10;0.53;;;;;;;;;;4976813;28;87366;-64
2024/02/18 06:13:46;;;;;;;1.07;0.73;;;;;;;;;;4978354;28;88347;-64
2024/02/18 06:16:12;;;;;;;1.53;0.60;;;;;;;;;;4974663;28;86990;-64
2024/02/18 06:18:37;;;;;;;0.73;0.55;;;;;;;;;;4981320;28;87244;-65
2024/02/18 06:21:04;;;;;;;0.40;0.40;;;;;;;;;;4978010;28;87799;-65
2024/02/18 06:23:29;;;;;;;0.55;0.45;;;;;;;;;;4979020;28;87008;-63
2024/02/18 06:25:56;;;;;;;0.80;0.60;;;;;;;;;;4977573;28;87798;-67
2024/02/18 06:28:21;;;;;;;1.08;0.60;;;;;;;;;;4975260;28;88702;-64
2024/02/18 06:30:46;;;;;;;0.50;0.43;;;;;;;;;;4978668;28;87294;-67
2024/02/18 06:33:11;;;;;;;0.93;0.60;;;;;;;;;;4979039;28;87551;-64
2024/02/18 06:35:37;;;;;;;0.80;0.60;;;;;;;;;;4973618;28;87022;-64
2024/02/18 06:38:02;;;;;;;0.80;0.70;;;;;;;;;;4978108;28;87971;-64
2024/02/18 06:40:28;;;;;;;0.90;0.70;;;;;;;;;;4979771;28;88324;-64
2024/02/18 06:42:53;;;;;;;1.10;0.40;;;;;;;;;;4973272;28;87849;-64
2024/02/18 06:45:18;;;;;;;0.90;0.60;;;;;;;;;;4976232;28;87268;-63
2024/02/18 06:47:43;;;;;;;1.13;0.60;;;;;;;;;;4976846;28;87109;-64
2024/02/18 06:50:08;;;;;;;0.90;0.60;;;;;;;;;;4978019;28;87589;-66
2024/02/18 06:52:34;;;;;;;1.00;0.50;;;;;;;;;;4978526;28;88037;-65
2024/02/18 06:54:59;;;;;;;1.20;0.60;;;;;;;;;;4974186;28;86971;-64
2024/02/18 06:57:24;;;;;;;0.77;0.50;;;;;;;;;;4972698;28;86847;-64
2024/02/18 06:59:50;;;;;;;0.70;0.40;;;;;;;;;;4976891;28;88373;-64
2024/02/18 07:02:15;;;;;;;0.90;0.60;;;;;;;;;;4977266;28;87908;-64
2024/02/18 07:04:40;;;;;;;0.87;0.60;;;;;;;;;;4976076;28;87662;-64
2024/02/18 07:07:06;;;;;;;0.50;0.50;;;;;;;;;;4977170;28;87003;-66
2024/02/18 07:09:31;;;;;;;0.70;0.50;;;;;;;;;;4978325;28;86910;-64
2024/02/18 07:11:56;;;;;;;0.70;0.60;;;;;;;;;;4976942;28;87533;-65
2024/02/18 07:14:21;;;;;;;0.30;0.30;;;;;;;;;;4978218;28;88389;-65
2024/02/18 07:16:46;;;;;;;0.73;0.40;;;;;;;;;;4976301;28;86971;-67
2024/02/18 07:19:12;;;;;;;1.43;0.50;;;;;;;;;;4975503;28;86775;-64
2024/02/18 07:21:37;;;;;;;0.47;0.47;;;;;;;;;;4974892;28;87051;-64
2024/02/18 07:24:03;;;;;;;0.90;0.50;;;;;;;;;;4978879;28;87276;-63
2024/02/18 07:26:28;;;;;;;1.00;0.50;;;;;;;;;;4976011;28;89339;-64
2024/02/18 07:28:54;;;;;;;0.67;0.47;;;;;;;;;;4977851;28;87878;-63
2024/02/18 07:31:19;;;;;;;0.85;0.60;;;;;;;;;;4975840;28;86769;-64
2024/02/18 07:33:45;;;;;;;0.55;0.45;;;;;;;;;;4976182;28;86934;-64
2024/02/18 07:36:10;;;;;;;1.40;0.40;;;;;;;;;;4977828;28;87141;-63
2024/02/18 07:38:35;;;;;;;0.97;0.57;;;;;;;;;;4975782;28;87838;-64
2024/02/18 07:41:01;;;;;;;1.50;0.50;;;;;;;;;;4976312;28;87417;-63
2024/02/18 07:43:26;;;;;;;2.63;1.27;;;;;;;;;;4978032;28;86963;-63
2024/02/18 07:45:51;;;;;;;1.80;1.20;;;;;;;;;;4976329;28;88439;-63
2024/02/18 07:48:17;;;;;;;3.03;1.20;;;;;;;;;;4978738;28;87195;-63
2024/02/18 07:50:42;;;;;;;1.37;0.93;;;;;;;;;;4974326;28;88472;-63
2024/02/18 07:53:07;;;;;;;2.30;1.10;;;;;;;;;;4976812;28;87489;-63
2024/02/18 07:55:32;;;;;;;1.67;0.97;;;;;;;;;;4975480;28;87048;-64
2024/02/18 07:57:58;;;;;;;1.90;0.90;;;;;;;;;;4974745;28;88482;-63
2024/02/18 08:00:23;;;;;;;3.47;0.80;;;;;;;;;;4974054;28;87289;-64
2024/02/18 08:02:48;;;;;;;5.68;1.20;;;;;;;;;;4977481;28;87561;-64
2024/02/18 08:05:14;;;;;;;4.37;0.87;;;;;;;;;;4978850;28;88110;-63
2024/02/18 08:07:39;;;;;;;1.40;1.00;;;;;;;;;;4973776;28;86415;-64
2024/02/18 08:10:05;;;;;;;1.40;0.73;;;;;;;;;;4971315;28;87020;-64
2024/02/18 08:12:30;;;;;;;2.53;0.77;;;;;;;;;;4976220;28;86955;-63
2024/02/18 08:14:55;;;;;;;2.03;0.70;;;;;;;;;;4974637;28;88061;-62
2024/02/18 08:17:21;;;;;;;1.00;0.73;;;;;;;;;;4976974;28;88838;-63
2024/02/18 08:19:46;;;;;;;1.77;0.87;;;;;;;;;;4972266;28;87341;-63
2024/02/18 08:22:11;;;;;;;4.03;0.83;;;;;;;;;;4973817;28;87677;-61
2024/02/18 08:24:36;;;;;;;0.70;0.70;;;;;;;;;;4975412;28;87826;-62
2024/02/18 08:27:02;;;;;;;2.53;0.90;;;;;;;;;;4974814;28;87364;-64
2024/02/18 08:29:27;;;;;;;2.03;0.90;;;;;;;;;;4972770;28;88199;-64
2024/02/18 08:31:53;;;;;;;1.77;1.00;;;;;;;;;;4976691;28;86719;-62
2024/02/18 08:34:19;;;;;;;1.70;0.90;;;;;;;;;;4977236;28;87000;-63
2024/02/18 08:36:45;;;;;;;4.40;0.93;;;;;;;;;;4975290;28;87783;-62
2024/02/18 08:39:10;;;;;;;3.13;0.70;;;;;;;;;;4976153;28;88585;-62
2024/02/18 08:41:35;;;;;;;6.90;1.10;;;;;;;;;;4973915;28;87517;-63
2024/02/18 08:44:00;;;;;;;9.37;2.20;;;;;;;;;;4974258;28;87252;-62
2024/02/18 08:46:25;;;;;;;6.50;1.37;;;;;;;;;;4977226;28;87404;-62
2024/02/18 08:48:51;;;;;;;8.23;1.50;;;;;;;;;;4978639;28;87647;-63
2024/02/18 08:51:16;;;;;;;2.58;1.20;;;;;;;;;;4973892;28;87857;-63
2024/02/18 08:53:42;;;;;;;8.60;1.53;;;;;;;;;;4974260;28;87752;-63
2024/02/18 08:56:10;;;;;;;4.40;1.53;;;;;;;;;;4975467;28;89525;-61
2024/02/18 08:58:35;;;;;;;6.05;1.50;;;;;;;;;;4970543;28;87343;-61
2024/02/18 09:01:01;;;;;;;6.10;1.53;;;;;;;;;;4974703;28;87092;-60
2024/02/18 09:03:27;;;;;;;3.60;1.40;;;;;;;;;;4973588;28;88459;-61
2024/02/18 09:05:52;;;;;;;7.20;1.20;;;;;;;;;;4974245;28;88872;-60
2024/02/18 09:08:19;;;;;;;12.77;1.90;;;;;;;;;;4975039;28;87975;-60
2024/02/18 09:10:44;;;;;;;6.97;1.73;;;;;;;;;;4976123;28;87658;-60
2024/02/18 09:13:11;;;;;;;5.85;1.60;;;;;;;;;;4973987;28;100304;-61
2024/02/18 09:15:37;;;;;;;7.37;0.93;;;;;;;;;;4973755;28;88085;-59
2024/02/18 09:18:02;;;;;;;4.27;1.17;;;;;;;;;;4972776;28;86956;-61
2024/02/18 09:20:29;;;;;;;3.50;1.40;;;;;;;;;;4972500;28;88185;-59
2024/02/18 09:22:54;;;;;;;11.15;1.67;;;;;;;;;;4975054;28;87701;-57
2024/02/18 09:25:19;;;;;;;3.67;1.10;;;;;;;;;;4976380;28;87486;-56
2024/02/18 09:27:45;;;;;;;3.93;1.20;;;;;;;;;;4973470;28;88017;-58
2024/02/18 09:30:10;;;;;;;6.53;1.10;;;;;;;;;;4968874;28;87026;-57
2024/02/18 09:32:36;;;;;;;5.03;1.27;;;;;;;;;;4975400;28;87322;-58
2024/02/18 09:35:01;;;;;;;3.83;1.30;;;;;;;;;;4971617;28;88071;-60
2024/02/18 09:37:26;;;;;;;3.77;1.63;;;;;;;;;;4971589;28;87804;-61
2024/02/18 09:39:51;;;;;;;5.17;1.33;;;;;;;;;;4975075;28;87430;-58
2024/02/18 09:42:17;;;;;;;2.30;1.17;;;;;;;;;;4975129;28;87591;-62
2024/02/18 09:44:45;;;;;;;6.38;1.40;;;;;;;;;;4974041;28;87076;-58
2024/02/18 09:47:12;;;;;;;2.40;1.20;;;;;;;;;;4974111;28;87485;-56
2024/02/18 09:49:37;;;;;;;3.33;1.30;;;;;;;;;;4974181;28;87815;-58
2024/02/18 09:52:03;;;;;;;5.00;1.10;;;;;;;;;;4975099;28;90169;-59
2024/02/18 09:54:30;;;;;;;2.47;1.00;;;;;;;;;;4973688;28;87934;-57
2024/02/18 09:56:55;;;;;;;3.20;1.00;;;;;;;;;;4971671;28;87711;-55
2024/02/18 09:59:22;;;;;;;4.23;1.57;;;;;;;;;;4973800;28;87306;-56
2024/02/18 10:01:51;;;;;;;1.00;0.77;;;;;;;;;;4970450;28;87572;-60
2024/02/18 10:04:16;;;;;;;3.92;0.98;;;;;;;;;;4969365;28;86975;-56
2024/02/18 10:06:42;;;;;;;1.80;1.10;;;;;;;;;;4974169;28;87258;-57
2024/02/18 10:09:07;;;;;;;2.83;0.90;;;;;;;;;;4974785;28;87478;-55
2024/02/18 10:11:33;;;;;;;5.43;1.10;;;;;;;;;;4974284;28;89168;-57
2024/02/18 10:13:58;;;;;;;3.20;0.93;;;;;;;;;;4978330;28;87975;-56
2024/02/18 10:16:24;;;;;;;5.53;1.70;;;;;;;;;;4970864;28;87978;-56
2024/02/18 10:18:50;;;;;;;2.80;0.63;;;;;;;;;;4975203;28;87186;-53
2024/02/18 10:21:15;;;;;;;6.53;1.33;;;;;;;;;;4974299;28;87834;-52
2024/02/18 10:23:41;;;;;;;3.90;0.93;;;;;;;;;;4973641;28;87537;-57
2024/02/18 10:26:07;;;;;;;5.38;1.30;;;;;;;;;;4967750;28;87140;-57
2024/02/18 10:28:33;;;;;;;2.13;0.95;;;;;;;;;;4973226;28;88184;-58
2024/02/18 10:30:59;;;;;;;1.65;0.95;;;;;;;;;;4971423;28;86980;-58
2024/02/18 10:33:24;;;;;;;3.88;1.17;;;;;;;;;;4976115;28;86341;-58
2024/02/18 10:35:51;;;;;;;4.90;1.17;;;;;;;;;;4975650;28;87858;-53
2024/02/18 10:38:20;;;;;;;2.72;1.02;;;;;;;;;;4971104;28;87331;-58
2024/02/18 10:40:47;;;;;;;3.27;1.20;;;;;;;;;;4966802;28;88427;-55
2024/02/18 10:43:15;;;;;;;3.53;1.23;;;;;;;;;;4971140;28;87175;-56
2024/02/18 10:45:41;;;;;;;3.43;1.10;;;;;;;;;;4972201;28;87931;-57
2024/02/18 10:48:10;;;;;;;7.95;0.98;;;;;;;;;;4978305;28;87055;-54
2024/02/18 10:50:39;;;;;;;3.60;1.20;;;;;;;;;;4967431;28;86997;-57
2024/02/18 10:53:10;;;;;;;4.32;1.40;;;;;;;;;;4977171;28;87329;-56
2024/02/18 10:55:35;;;;;;;3.10;1.10;;;;;;;;;;4976477;28;87845;-57
2024/02/18 10:58:07;;;;;;;11.43;1.30;;;;;;;;;;4980301;28;86654;-59
2024/02/18 11:00:36;;;;;;;1.90;0.98;;;;;;;;;;4975718;28;88151;-54
2024/02/18 11:03:11;;;;;;;9.30;1.10;;;;;;;;;;4974781;28;87476;-57
2024/02/18 11:05:36;;;;;;;6.07;1.37;;;;;;;;;;4975223;28;87977;-56
2024/02/18 11:08:01;;;;;;;8.80;1.77;;;;;;;;;;4975695;28;87055;-58
2024/02/18 11:10:28;;;;;;;5.00;1.30;;;;;;;;;;4975439;28;87295;-53
2024/02/18 11:12:54;;;;;;;3.60;0.93;;;;;;;;;;4976080;28;87164;-56
2024/02/18 11:15:19;;;;;;;2.08;0.93;;;;;;;;;;4977879;28;86838;-57
2024/02/18 11:17:45;;;;;;;3.15;1.05;;;;;;;;;;4977332;28;87075;-53
2024/02/18 11:20:11;;;;;;;1.05;0.80;;;;;;;;;;4980340;28;87428;-54
2024/02/18 11:22:37;;;;;;;3.80;1.30;;;;;;;;;;4974891;28;86344;-56
2024/02/18 11:25:04;;;;;;;2.67;1.08;;;;;;;;;;4975678;28;86912;-59
2024/02/18 11:27:31;;;;;;;4.05;1.05;;;;;;;;;;4977865;28;86978;-58
2024/02/18 11:29:56;;;;;;;2.67;0.88;;;;;;;;;;4973961;28;88742;-59
2024/02/18 11:32:21;;;;;;;2.13;1.07;;;;;;;;;;4974358;28;88346;-58
2024/02/18 11:34:47;;;;;;;2.47;0.90;;;;;;;;;;4973369;28;87787;-56
2024/02/18 11:37:41;;;;;;;6.10;1.30;;;;;;;;;;4972071;28;87167;-57
2024/02/18 11:40:08;;;;;;;4.40;1.40;;;;;;;;;;4963794;28;87416;-59
2024/02/18 11:42:40;;;;;;;2.20;0.88;;;;;;;;;;4979918;28;87601;-60
2024/02/18 11:45:10;;;;;;;10.63;1.33;;;;;;;;;;4976558;28;87592;-59
2024/02/18 11:47:35;;;;;;;3.25;0.98;;;;;;;;;;4976338;28;87248;-58
2024/02/18 11:50:00;;;;;;;3.97;1.37;;;;;;;;;;4975898;28;87031;-60
2024/02/18 11:52:26;;;;;;;3.90;1.13;;;;;;;;;;4976248;28;87028;-60
2024/02/18 11:54:51;;;;;;;2.97;1.05;;;;;;;;;;4976214;28;89296;-60
2024/02/18 11:57:16;;;;;;;6.83;1.23;;;;;;;;;;4976040;28;87104;-59
2024/02/18 11:59:42;;;;;;;3.55;0.90;;;;;;;;;;4974698;28;87801;-61
2024/02/18 12:02:07;;;;;;;1.93;0.70;;;;;;;;;;4979206;28;87341;-59
2024/02/18 12:04:32;;;;;;;4.70;1.20;;;;;;;;;;4977195;28;87159;-60
2024/02/18 12:06:59;;;;;;;4.03;1.37;;;;;;;;;;4975959;28;87730;-59
2024/02/18 12:09:26;;;;;;;1.70;0.77;;;;;;;;;;4973959;28;87237;-61
2024/02/18 12:11:51;;;;;;;6.30;0.90;;;;;;;;;;4976873;28;87250;-59
2024/02/18 12:14:20;;;;;;;3.20;1.50;;;;;;;;;;4976600;28;87014;-57
2024/02/18 12:16:45;;;;;;;9.60;1.85;;;;;;;;;;4976572;28;87132;-59
2024/02/18 12:19:11;;;;;;;5.82;1.70;;;;;;;;;;4975656;28;88470;-58
2024/02/18 12:21:37;;;;;;;4.63;1.70;;;;;;;;;;4973645;28;88747;-57
2024/02/18 12:24:03;;;;;;;5.32;1.40;;;;;;;;;;4979964;28;87316;-57
2024/02/18 12:26:28;;;;;;;2.50;1.40;;;;;;;;;;4973960;28;88557;-57
2024/02/18 12:28:53;;;;;;;2.90;1.13;;;;;;;;;;4976269;28;86888;-58
2024/02/18 12:31:19;;;;;;;3.67;1.40;;;;;;;;;;4972078;28;88657;-57
2024/02/18 12:33:45;;;;;;;3.67;1.30;;;;;;;;;;4976912;28;87295;-56
2024/02/18 12:36:11;;;;;;;4.63;1.52;;;;;;;;;;4973241;28;86722;-56
2024/02/18 12:38:36;;;;;;;5.60;1.20;;;;;;;;;;4973866;28;87719;-54
2024/02/18 12:41:03;;;;;;;5.80;1.57;;;;;;;;;;4973038;28;86973;-57
2024/02/18 12:43:28;;;;;;;9.55;2.40;;;;;;;;;;4973763;28;88193;-59
2024/02/18 12:45:53;;;;;;;7.70;1.93;;;;;;;;;;4972991;28;87256;-54
2024/02/18 12:48:20;;;;;;;2.97;1.37;;;;;;;;;;4974018;28;87483;-59
2024/02/18 12:50:55;;;;;;;6.00;1.25;;;;;;;;;;4976931;28;88012;-58
2024/02/18 12:53:20;;;;;;;6.32;1.25;;;;;;;;;;4975927;28;88654;-56
2024/02/18 12:55:46;;;;;;;4.70;1.30;;;;;;;;;;4979101;28;88048;-57
2024/02/18 12:58:11;;;;;;;6.60;1.70;;;;;;;;;;4978557;28;87369;-58
2024/02/18 13:00:36;;;;;;;3.77;1.20;;;;;;;;;;4978102;28;86884;-57
2024/02/18 13:03:07;;;;;;;5.77;1.20;;;;;;;;;;4974808;28;87312;-55
2024/02/18 13:05:33;;;;;;;3.83;1.48;;;;;;;;;;4975491;28;87480;-59
2024/02/18 13:07:58;;;;;;;3.20;1.48;;;;;;;;;;4975892;28;88564;-57
2024/02/18 13:10:23;;;;;;;4.68;1.35;;;;;;;;;;4977792;28;87441;-57
2024/02/18 13:12:50;;;;;;;5.68;1.23;;;;;;;;;;4974253;28;87046;-56
2024/02/18 13:15:15;;;;;;;3.30;1.30;;;;;;;;;;4974499;28;87801;-55
2024/02/18 13:17:42;;;;;;;5.15;1.80;;;;;;;;;;4970579;28;89622;-57
2024/02/18 13:20:07;;;;;;;4.15;1.30;;;;;;;;;;4975077;28;87043;-58
2024/02/18 13:22:33;;;;;;;5.10;1.50;;;;;;;;;;4975476;28;86993;-58
2024/02/18 13:24:58;;;;;;;5.20;1.50;;;;;;;;;;4979424;28;86299;-58
2024/02/18 13:27:23;;;;;;;6.07;1.60;;;;;;;;;;4975237;28;87870;-60
2024/02/18 13:29:49;;;;;;;6.63;1.85;;;;;;;;;;4977634;28;87000;-59
2024/02/18 13:32:14;;;;;;;4.20;1.50;;;;;;;;;;4976336;28;88123;-58
2024/02/18 13:34:39;;;;;;;5.90;1.73;;;;;;;;;;4974369;28;87990;-58
2024/02/18 13:37:04;;;;;;;6.90;1.63;;;;;;;;;;4960409;28;89723;-57
2024/02/18 13:39:30;;;;;;;7.17;2.07;;;;;;;;;;4976462;28;87538;-58
2024/02/18 13:41:56;;;;;;;6.35;1.70;;;;;;;;;;4977526;28;87643;-57
2024/02/18 13:44:21;;;;;;;16.92;2.85;;;;;;;;;;4977307;28;87381;-60
2024/02/18 13:46:46;;;;;;;10.20;2.67;;;;;;;;;;4973319;28;87634;-59
2024/02/18 13:49:12;;;;;;;10.83;2.40;;;;;;;;;;4976413;28;86500;-60
2024/02/18 13:51:37;;;;;;;10.57;2.57;;;;;;;;;;4975219;28;87789;-60
2024/02/18 13:54:03;;;;;;;3.53;1.80;;;;;;;;;;4968228;28;87472;-58
2024/02/18 13:56:29;;;;;;;12.10;2.55;;;;;;;;;;4973053;28;88385;-56
2024/02/18 13:58:54;;;;;;;12.10;2.50;;;;;;;;;;4976521;28;88639;-58
2024/02/18 14:01:19;;;;;;;7.30;2.42;;;;;;;;;;4975436;28;87632;-59
2024/02/18 14:03:44;;;;;;;5.83;2.30;;;;;;;;;;4971408;28;87645;-59
2024/02/18 14:06:12;;;;;;;7.93;2.57;;;;;;;;;;4975501;28;87110;-56
2024/02/18 14:08:38;;;;;;;8.55;2.75;;;;;;;;;;4970748;28;87160;-58
2024/02/18 14:11:03;;;;;;;7.65;2.72;;;;;;;;;;4980993;28;87503;-58
2024/02/18 14:13:29;;;;;;;10.63;2.73;;;;;;;;;;4976289;28;86725;-59
2024/02/18 14:15:55;;;;;;;9.70;2.97;;;;;;;;;;4977758;28;87411;-58
2024/02/18 14:18:20;;;;;;;5.82;2.75;;;;;;;;;;4979647;28;87864;-59
2024/02/18 14:20:46;;;;;;;7.60;2.60;;;;;;;;;;4973847;28;88671;-59
2024/02/18 14:23:11;;;;;;;7.47;2.83;;;;;;;;;;4979320;28;88329;-61
2024/02/18 14:25:37;;;;;;;7.50;3.00;;;;;;;;;;4980972;28;87764;-61
2024/02/18 14:28:02;;;;;;;10.33;2.97;;;;;;;;;;4977304;28;87092;-60
2024/02/18 14:30:28;;;;;;;15.55;2.10;;;;;;;;;;4977637;28;88582;-61
2024/02/18 14:32:55;;;;;;;7.00;2.63;;;;;;;;;;4983632;28;87358;-59